Eminence, Missouri
Current Conditions -  °F | °C
As of 11:53 PM on Sunday 21 Dec 2014 (Local Time) from KUNO Reporting Station
Overcast Overcast  
Wind Chill: 37°   Ceiling: 4100
Heat Index: 40°   Visibility: 10mi
Dew Point: 33°   Wind: 5mph
Humidity: 77%   Direction: 100°E
Pressure: 29.87"   Gusts: NA
Location:  37.15°N, 91.36°W
Report Text: KUNO 220553Z AUTO 10004KT 10SM OVC041 04/01 A2987 RMK AO2 SLP120 T00440006 10044 20033 400560028 58018 $
Loading
Personal Weather Stations






























Interactive Weather Map New forecast layout! Learn more

10-Day Weather Forecast

Advertisements
Track Severe Weather on mobile